sensor_id;sensor_type;location;lat;lon;timestamp;temperature;humidity
11894;DHT22;6006;49.696;8.662;2022-08-01T00:01:51;18.10;99.90
11894;DHT22;6006;49.696;8.662;2022-08-01T00:04:18;18.20;99.90
11894;DHT22;6006;49.696;8.662;2022-08-01T00:06:45;18.20;99.90
11894;DHT22;6006;49.696;8.662;2022-08-01T00:09:13;18.10;99.90
11894;DHT22;6006;49.696;8.662;2022-08-01T00:11:40;18.10;99.90
11894;DHT22;6006;49.696;8.662;2022-08-01T00:14:08;18.00;99.90
11894;DHT22;6006;49.696;8.662;2022-08-01T00:16:36;18.00;99.90
11894;DHT22;6006;49.696;8.662;2022-08-01T00:19:03;18.00;99.90
11894;DHT22;6006;49.696;8.662;2022-08-01T00:21:30;18.10;99.90
11894;DHT22;6006;49.696;8.662;2022-08-01T00:23:57;18.10;99.90
11894;DHT22;6006;49.696;8.662;2022-08-01T00:26:26;18.10;99.90
11894;DHT22;6006;49.696;8.662;2022-08-01T00:28:53;18.20;99.90
11894;DHT22;6006;49.696;8.662;2022-08-01T00:31:19;18.20;99.90
11894;DHT22;6006;49.696;8.662;2022-08-01T00:33:46;18.20;99.90
11894;DHT22;6006;49.696;8.662;2022-08-01T00:36:13;18.20;99.90
11894;DHT22;6006;49.696;8.662;2022-08-01T00:38:40;18.20;99.90
11894;DHT22;6006;49.696;8.662;2022-08-01T00:41:07;18.10;99.90
11894;DHT22;6006;49.696;8.662;2022-08-01T00:43:35;18.20;99.90
11894;DHT22;6006;49.696;8.662;2022-08-01T00:46:02;18.20;99.90
11894;DHT22;6006;49.696;8.662;2022-08-01T00:48:29;18.20;99.90
11894;DHT22;6006;49.696;8.662;2022-08-01T00:50:56;18.20;99.90
11894;DHT22;6006;49.696;8.662;2022-08-01T00:53:23;18.20;99.90
11894;DHT22;6006;49.696;8.662;2022-08-01T00:55:50;18.10;99.90
11894;DHT22;6006;49.696;8.662;2022-08-01T00:58:17;18.10;99.90
11894;DHT22;6006;49.696;8.662;2022-08-01T01:00:46;18.20;99.90
11894;DHT22;6006;49.696;8.662;2022-08-01T01:03:12;18.20;99.90
11894;DHT22;6006;49.696;8.662;2022-08-01T01:05:45;18.20;99.90
11894;DHT22;6006;49.696;8.662;2022-08-01T01:08:16;18.20;99.90
11894;DHT22;6006;49.696;8.662;2022-08-01T01:10:51;18.20;99.90
11894;DHT22;6006;49.696;8.662;2022-08-01T01:13:23;18.30;99.90
11894;DHT22;6006;49.696;8.662;2022-08-01T01:15:58;18.30;99.90
11894;DHT22;6006;49.696;8.662;2022-08-01T01:18:29;18.40;99.90
11894;DHT22;6006;49.696;8.662;2022-08-01T01:21:03;18.40;99.90
11894;DHT22;6006;49.696;8.662;2022-08-01T01:23:44;18.30;99.90
11894;DHT22;6006;49.696;8.662;2022-08-01T01:26:23;18.30;99.90
11894;DHT22;6006;49.696;8.662;2022-08-01T01:29:05;18.30;99.90
11894;DHT22;6006;49.696;8.662;2022-08-01T01:31:37;18.30;99.90
11894;DHT22;6006;49.696;8.662;2022-08-01T01:34:08;18.30;99.90
11894;DHT22;6006;49.696;8.662;2022-08-01T01:36:37;18.30;99.90
11894;DHT22;6006;49.696;8.662;2022-08-01T01:39:05;18.20;99.90
11894;DHT22;6006;49.696;8.662;2022-08-01T01:41:35;18.10;99.90
11894;DHT22;6006;49.696;8.662;2022-08-01T01:44:05;18.10;99.90
11894;DHT22;6006;49.696;8.662;2022-08-01T01:46:33;18.00;99.90
11894;DHT22;6006;49.696;8.662;2022-08-01T01:49:01;18.00;99.90
11894;DHT22;6006;49.696;8.662;2022-08-01T01:51:29;18.00;99.90
11894;DHT22;6006;49.696;8.662;2022-08-01T01:53:58;17.90;99.90
11894;DHT22;6006;49.696;8.662;2022-08-01T01:56:27;17.90;99.90
11894;DHT22;6006;49.696;8.662;2022-08-01T01:58:57;17.90;99.90
11894;DHT22;6006;49.696;8.662;2022-08-01T02:01:29;17.90;99.90
11894;DHT22;6006;49.696;8.662;2022-08-01T02:03:58;18.00;99.90
11894;DHT22;6006;49.696;8.662;2022-08-01T02:06:28;18.00;99.90
11894;DHT22;6006;49.696;8.662;2022-08-01T02:08:58;18.00;99.90
11894;DHT22;6006;49.696;8.662;2022-08-01T02:11:26;18.00;99.90
11894;DHT22;6006;49.696;8.662;2022-08-01T02:13:57;17.90;99.90
11894;DHT22;6006;49.696;8.662;2022-08-01T02:16:28;17.90;99.90
11894;DHT22;6006;49.696;8.662;2022-08-01T02:18:56;17.70;99.90
11894;DHT22;6006;49.696;8.662;2022-08-01T02:21:27;17.70;99.90
11894;DHT22;6006;49.696;8.662;2022-08-01T02:23:55;17.60;99.90
11894;DHT22;6006;49.696;8.662;2022-08-01T02:26:26;17.60;99.90
11894;DHT22;6006;49.696;8.662;2022-08-01T02:28:57;17.60;99.90
11894;DHT22;6006;49.696;8.662;2022-08-01T02:31:25;17.60;99.90
11894;DHT22;6006;49.696;8.662;2022-08-01T02:33:58;17.60;99.90
11894;DHT22;6006;49.696;8.662;2022-08-01T02:36:28;17.60;99.90
11894;DHT22;6006;49.696;8.662;2022-08-01T02:38:57;17.60;99.90
11894;DHT22;6006;49.696;8.662;2022-08-01T02:41:26;17.50;99.90
11894;DHT22;6006;49.696;8.662;2022-08-01T02:44:02;17.50;99.90
11894;DHT22;6006;49.696;8.662;2022-08-01T02:46:43;17.50;99.90
11894;DHT22;6006;49.696;8.662;2022-08-01T02:49:13;17.50;99.90
11894;DHT22;6006;49.696;8.662;2022-08-01T02:51:42;17.40;99.90
11894;DHT22;6006;49.696;8.662;2022-08-01T02:54:10;17.40;99.90
11894;DHT22;6006;49.696;8.662;2022-08-01T02:56:38;17.50;99.90
11894;DHT22;6006;49.696;8.662;2022-08-01T02:59:08;17.40;99.90
11894;DHT22;6006;49.696;8.662;2022-08-01T03:01:38;17.40;99.90
11894;DHT22;6006;49.696;8.662;2022-08-01T03:04:07;17.40;99.90
11894;DHT22;6006;49.696;8.662;2022-08-01T03:06:36;17.40;99.90
11894;DHT22;6006;49.696;8.662;2022-08-01T03:09:04;17.40;99.90
11894;DHT22;6006;49.696;8.662;2022-08-01T03:11:35;17.30;99.90
11894;DHT22;6006;49.696;8.662;2022-08-01T03:14:05;17.20;99.90
11894;DHT22;6006;49.696;8.662;2022-08-01T03:16:33;17.20;99.90
11894;DHT22;6006;49.696;8.662;2022-08-01T03:19:03;17.10;99.90
11894;DHT22;6006;49.696;8.662;2022-08-01T03:21:31;17.10;99.90
11894;DHT22;6006;49.696;8.662;2022-08-01T03:24:01;17.00;99.90
11894;DHT22;6006;49.696;8.662;2022-08-01T03:26:32;17.00;99.90
11894;DHT22;6006;49.696;8.662;2022-08-01T03:29:04;17.00;99.90
11894;DHT22;6006;49.696;8.662;2022-08-01T03:31:34;16.90;99.90
11894;DHT22;6006;49.696;8.662;2022-08-01T03:34:02;16.90;99.90
11894;DHT22;6006;49.696;8.662;2022-08-01T03:36:30;16.90;99.90
11894;DHT22;6006;49.696;8.662;2022-08-01T03:39:02;16.90;99.90
11894;DHT22;6006;49.696;8.662;2022-08-01T03:41:34;16.80;99.90
11894;DHT22;6006;49.696;8.662;2022-08-01T03:44:05;16.80;99.90
11894;DHT22;6006;49.696;8.662;2022-08-01T03:46:47;16.80;99.90
11894;DHT22;6006;49.696;8.662;2022-08-01T03:49:17;16.80;99.90
11894;DHT22;6006;49.696;8.662;2022-08-01T03:51:45;16.80;99.90
11894;DHT22;6006;49.696;8.662;2022-08-01T03:54:20;16.80;99.90
11894;DHT22;6006;49.696;8.662;2022-08-01T03:56:48;16.80;99.90
11894;DHT22;6006;49.696;8.662;2022-08-01T03:59:18;16.80;99.90
11894;DHT22;6006;49.696;8.662;2022-08-01T04:01:46;16.90;99.90
11894;DHT22;6006;49.696;8.662;2022-08-01T04:04:14;16.90;99.90
11894;DHT22;6006;49.696;8.662;2022-08-01T04:06:41;17.00;99.90
11894;DHT22;6006;49.696;8.662;2022-08-01T04:09:10;17.10;99.90
11894;DHT22;6006;49.696;8.662;2022-08-01T04:11:39;17.10;99.90
11894;DHT22;6006;49.696;8.662;2022-08-01T04:14:06;17.20;99.90
11894;DHT22;6006;49.696;8.662;2022-08-01T04:16:33;17.20;99.90
11894;DHT22;6006;49.696;8.662;2022-08-01T04:19:00;17.30;99.90
11894;DHT22;6006;49.696;8.662;2022-08-01T04:21:28;17.40;99.90
11894;DHT22;6006;49.696;8.662;2022-08-01T04:24:03;17.40;99.90
11894;DHT22;6006;49.696;8.662;2022-08-01T04:26:32;17.50;99.90
11894;DHT22;6006;49.696;8.662;2022-08-01T04:29:02;17.60;99.90
11894;DHT22;6006;49.696;8.662;2022-08-01T04:31:30;17.70;99.90
11894;DHT22;6006;49.696;8.662;2022-08-01T04:33:58;17.80;99.90
11894;DHT22;6006;49.696;8.662;2022-08-01T04:36:26;17.80;99.90
11894;DHT22;6006;49.696;8.662;2022-08-01T04:38:57;17.80;99.90
11894;DHT22;6006;49.696;8.662;2022-08-01T04:41:26;18.00;99.90
11894;DHT22;6006;49.696;8.662;2022-08-01T04:43:53;18.00;99.90
11894;DHT22;6006;49.696;8.662;2022-08-01T04:46:22;18.10;99.90
11894;DHT22;6006;49.696;8.662;2022-08-01T04:48:49;18.20;99.90
11894;DHT22;6006;49.696;8.662;2022-08-01T04:51:17;18.30;99.90
11894;DHT22;6006;49.696;8.662;2022-08-01T04:53:48;18.40;99.90
11894;DHT22;6006;49.696;8.662;2022-08-01T04:56:16;18.40;99.90
11894;DHT22;6006;49.696;8.662;2022-08-01T04:58:44;18.60;99.90
11894;DHT22;6006;49.696;8.662;2022-08-01T05:01:11;18.70;99.90
11894;DHT22;6006;49.696;8.662;2022-08-01T05:03:39;18.90;99.90
11894;DHT22;6006;49.696;8.662;2022-08-01T05:06:06;19.10;99.90
11894;DHT22;6006;49.696;8.662;2022-08-01T05:08:33;19.40;99.90
11894;DHT22;6006;49.696;8.662;2022-08-01T05:11:01;19.50;99.90
11894;DHT22;6006;49.696;8.662;2022-08-01T05:13:28;19.60;99.90
11894;DHT22;6006;49.696;8.662;2022-08-01T05:15:55;19.70;99.90
11894;DHT22;6006;49.696;8.662;2022-08-01T05:18:22;19.80;99.90
11894;DHT22;6006;49.696;8.662;2022-08-01T05:20:50;19.90;99.90
11894;DHT22;6006;49.696;8.662;2022-08-01T05:23:17;20.00;99.90
11894;DHT22;6006;49.696;8.662;2022-08-01T05:25:44;20.10;99.90
11894;DHT22;6006;49.696;8.662;2022-08-01T05:28:11;20.20;99.90
11894;DHT22;6006;49.696;8.662;2022-08-01T05:30:39;19.70;99.90
11894;DHT22;6006;49.696;8.662;2022-08-01T05:33:06;20.20;99.90
11894;DHT22;6006;49.696;8.662;2022-08-01T05:35:33;20.30;99.90
11894;DHT22;6006;49.696;8.662;2022-08-01T05:38:01;20.30;99.90
11894;DHT22;6006;49.696;8.662;2022-08-01T05:40:28;20.40;99.90
11894;DHT22;6006;49.696;8.662;2022-08-01T05:42:55;20.40;99.90
11894;DHT22;6006;49.696;8.662;2022-08-01T05:45:21;20.50;99.90
11894;DHT22;6006;49.696;8.662;2022-08-01T05:47:48;20.60;99.90
11894;DHT22;6006;49.696;8.662;2022-08-01T05:50:15;20.70;99.90
11894;DHT22;6006;49.696;8.662;2022-08-01T05:52:42;20.80;99.90
11894;DHT22;6006;49.696;8.662;2022-08-01T05:55:10;20.90;99.90
11894;DHT22;6006;49.696;8.662;2022-08-01T05:57:37;21.00;99.90
11894;DHT22;6006;49.696;8.662;2022-08-01T06:00:05;21.20;99.90
11894;DHT22;6006;49.696;8.662;2022-08-01T06:02:34;21.30;99.90
11894;DHT22;6006;49.696;8.662;2022-08-01T06:05:00;21.30;99.90
11894;DHT22;6006;49.696;8.662;2022-08-01T06:07:27;21.40;99.90
11894;DHT22;6006;49.696;8.662;2022-08-01T06:09:54;21.60;99.90
11894;DHT22;6006;49.696;8.662;2022-08-01T06:12:23;21.70;99.90
11894;DHT22;6006;49.696;8.662;2022-08-01T06:14:49;22.00;99.90
11894;DHT22;6006;49.696;8.662;2022-08-01T06:17:16;22.40;99.90
11894;DHT22;6006;49.696;8.662;2022-08-01T06:19:43;22.70;99.90
11894;DHT22;6006;49.696;8.662;2022-08-01T06:22:10;23.20;99.90
11894;DHT22;6006;49.696;8.662;2022-08-01T06:24:37;23.00;99.70
11894;DHT22;6006;49.696;8.662;2022-08-01T06:27:04;23.30;99.00
11894;DHT22;6006;49.696;8.662;2022-08-01T06:29:32;23.30;98.20
11894;DHT22;6006;49.696;8.662;2022-08-01T06:32:00;23.40;98.70
11894;DHT22;6006;49.696;8.662;2022-08-01T06:34:27;23.30;98.30
11894;DHT22;6006;49.696;8.662;2022-08-01T06:36:54;22.80;99.70
11894;DHT22;6006;49.696;8.662;2022-08-01T06:39:20;22.90;99.50
11894;DHT22;6006;49.696;8.662;2022-08-01T06:41:47;22.80;99.90
11894;DHT22;6006;49.696;8.662;2022-08-01T06:44:15;22.80;99.70
11894;DHT22;6006;49.696;8.662;2022-08-01T06:46:43;22.80;99.90
11894;DHT22;6006;49.696;8.662;2022-08-01T06:49:10;23.20;99.00
11894;DHT22;6006;49.696;8.662;2022-08-01T06:51:37;23.40;98.10
11894;DHT22;6006;49.696;8.662;2022-08-01T06:54:04;23.60;96.70
11894;DHT22;6006;49.696;8.662;2022-08-01T06:56:31;23.60;97.10
11894;DHT22;6006;49.696;8.662;2022-08-01T06:59:00;23.60;95.50
11894;DHT22;6006;49.696;8.662;2022-08-01T07:01:28;23.90;96.00
11894;DHT22;6006;49.696;8.662;2022-08-01T07:03:56;24.40;93.90
11894;DHT22;6006;49.696;8.662;2022-08-01T07:06:24;24.80;92.40
11894;DHT22;6006;49.696;8.662;2022-08-01T07:08:51;24.70;92.50
11894;DHT22;6006;49.696;8.662;2022-08-01T07:11:19;24.10;93.50
11894;DHT22;6006;49.696;8.662;2022-08-01T07:13:46;24.20;92.70
11894;DHT22;6006;49.696;8.662;2022-08-01T07:16:13;24.50;93.40
11894;DHT22;6006;49.696;8.662;2022-08-01T07:18:40;24.60;91.70
11894;DHT22;6006;49.696;8.662;2022-08-01T07:21:08;24.20;95.00
11894;DHT22;6006;49.696;8.662;2022-08-01T07:23:35;23.70;95.20
11894;DHT22;6006;49.696;8.662;2022-08-01T07:26:02;23.40;95.50
11894;DHT22;6006;49.696;8.662;2022-08-01T07:28:30;23.40;97.10
11894;DHT22;6006;49.696;8.662;2022-08-01T07:30:57;23.60;97.60
11894;DHT22;6006;49.696;8.662;2022-08-01T07:33:24;23.60;96.90
11894;DHT22;6006;49.696;8.662;2022-08-01T07:35:51;23.60;96.20
11894;DHT22;6006;49.696;8.662;2022-08-01T07:38:19;23.90;95.60
11894;DHT22;6006;49.696;8.662;2022-08-01T07:40:46;23.90;95.30
11894;DHT22;6006;49.696;8.662;2022-08-01T07:43:13;24.10;94.30
11894;DHT22;6006;49.696;8.662;2022-08-01T07:45:40;24.60;94.40
11894;DHT22;6006;49.696;8.662;2022-08-01T07:48:07;24.60;91.90
11894;DHT22;6006;49.696;8.662;2022-08-01T07:50:34;24.30;92.40
11894;DHT22;6006;49.696;8.662;2022-08-01T07:53:01;24.70;93.90
11894;DHT22;6006;49.696;8.662;2022-08-01T07:55:30;25.40;91.30
11894;DHT22;6006;49.696;8.662;2022-08-01T07:57:57;25.90;87.10
11894;DHT22;6006;49.696;8.662;2022-08-01T08:00:24;25.70;86.50
11894;DHT22;6006;49.696;8.662;2022-08-01T08:02:52;24.70;89.90
11894;DHT22;6006;49.696;8.662;2022-08-01T08:05:20;24.80;90.70
11894;DHT22;6006;49.696;8.662;2022-08-01T08:07:47;24.80;91.20
11894;DHT22;6006;49.696;8.662;2022-08-01T08:10:14;24.90;90.60
11894;DHT22;6006;49.696;8.662;2022-08-01T08:12:42;25.10;90.00
11894;DHT22;6006;49.696;8.662;2022-08-01T08:15:11;25.50;86.90
11894;DHT22;6006;49.696;8.662;2022-08-01T08:17:39;25.60;86.80
11894;DHT22;6006;49.696;8.662;2022-08-01T08:20:08;25.30;88.30
11894;DHT22;6006;49.696;8.662;2022-08-01T08:22:36;25.40;87.50
11894;DHT22;6006;49.696;8.662;2022-08-01T08:25:04;25.10;90.10
11894;DHT22;6006;49.696;8.662;2022-08-01T08:27:31;25.20;89.80
11894;DHT22;6006;49.696;8.662;2022-08-01T08:29:59;25.30;90.90
11894;DHT22;6006;49.696;8.662;2022-08-01T08:32:26;25.80;86.80
11894;DHT22;6006;49.696;8.662;2022-08-01T08:34:53;25.70;85.10
11894;DHT22;6006;49.696;8.662;2022-08-01T08:37:20;25.70;85.10
11894;DHT22;6006;49.696;8.662;2022-08-01T08:39:47;26.00;84.70
11894;DHT22;6006;49.696;8.662;2022-08-01T08:42:14;25.90;83.90
11894;DHT22;6006;49.696;8.662;2022-08-01T08:44:41;26.10;81.80
11894;DHT22;6006;49.696;8.662;2022-08-01T08:47:11;26.20;84.60
11894;DHT22;6006;49.696;8.662;2022-08-01T08:49:39;26.20;82.20
11894;DHT22;6006;49.696;8.662;2022-08-01T08:52:08;25.80;82.80
11894;DHT22;6006;49.696;8.662;2022-08-01T08:54:37;26.20;85.80
11894;DHT22;6006;49.696;8.662;2022-08-01T08:57:05;26.00;82.20
11894;DHT22;6006;49.696;8.662;2022-08-01T08:59:32;26.10;82.50
11894;DHT22;6006;49.696;8.662;2022-08-01T09:01:59;26.30;81.80
11894;DHT22;6006;49.696;8.662;2022-08-01T09:04:27;26.70;79.60
11894;DHT22;6006;49.696;8.662;2022-08-01T09:06:55;27.50;75.60
11894;DHT22;6006;49.696;8.662;2022-08-01T09:09:22;28.50;73.20
11894;DHT22;6006;49.696;8.662;2022-08-01T09:11:49;28.60;67.70
11894;DHT22;6006;49.696;8.662;2022-08-01T09:14:18;29.60;63.90
11894;DHT22;6006;49.696;8.662;2022-08-01T09:17:00;28.70;64.00
11894;DHT22;6006;49.696;8.662;2022-08-01T09:19:35;28.60;65.80
11894;DHT22;6006;49.696;8.662;2022-08-01T09:22:03;27.80;69.50
11894;DHT22;6006;49.696;8.662;2022-08-01T09:24:31;27.20;67.80
11894;DHT22;6006;49.696;8.662;2022-08-01T09:26:59;27.40;67.70
11894;DHT22;6006;49.696;8.662;2022-08-01T09:29:29;27.60;68.70
11894;DHT22;6006;49.696;8.662;2022-08-01T09:31:57;26.60;67.60
11894;DHT22;6006;49.696;8.662;2022-08-01T09:34:26;26.30;69.60
11894;DHT22;6006;49.696;8.662;2022-08-01T09:36:56;26.60;70.30
11894;DHT22;6006;49.696;8.662;2022-08-01T09:39:25;26.50;76.60
11894;DHT22;6006;49.696;8.662;2022-08-01T09:41:52;26.80;69.20
11894;DHT22;6006;49.696;8.662;2022-08-01T09:44:25;26.90;66.90
11894;DHT22;6006;49.696;8.662;2022-08-01T09:47:02;26.80;67.50
11894;DHT22;6006;49.696;8.662;2022-08-01T09:49:31;27.70;65.60
11894;DHT22;6006;49.696;8.662;2022-08-01T09:52:11;28.60;61.60
11894;DHT22;6006;49.696;8.662;2022-08-01T09:54:38;30.30;55.30
11894;DHT22;6006;49.696;8.662;2022-08-01T09:57:12;30.50;55.00
11894;DHT22;6006;49.696;8.662;2022-08-01T09:59:40;30.30;52.30
11894;DHT22;6006;49.696;8.662;2022-08-01T10:02:09;30.20;53.00
11894;DHT22;6006;49.696;8.662;2022-08-01T10:04:46;30.80;48.20
11894;DHT22;6006;49.696;8.662;2022-08-01T10:07:14;29.10;52.60
11894;DHT22;6006;49.696;8.662;2022-08-01T10:09:42;29.20;51.30
11894;DHT22;6006;49.696;8.662;2022-08-01T10:12:11;29.10;51.20
11894;DHT22;6006;49.696;8.662;2022-08-01T10:14:38;28.50;52.10
11894;DHT22;6006;49.696;8.662;2022-08-01T10:17:08;27.70;56.10
11894;DHT22;6006;49.696;8.662;2022-08-01T10:19:35;28.30;57.10
11894;DHT22;6006;49.696;8.662;2022-08-01T10:22:06;28.90;53.70
11894;DHT22;6006;49.696;8.662;2022-08-01T10:24:37;28.80;55.30
11894;DHT22;6006;49.696;8.662;2022-08-01T10:27:07;29.40;52.70
11894;DHT22;6006;49.696;8.662;2022-08-01T10:29:37;29.80;49.90
11894;DHT22;6006;49.696;8.662;2022-08-01T10:32:05;30.30;47.80
11894;DHT22;6006;49.696;8.662;2022-08-01T10:34:35;30.10;47.60
11894;DHT22;6006;49.696;8.662;2022-08-01T10:37:03;29.80;47.70
11894;DHT22;6006;49.696;8.662;2022-08-01T10:39:31;29.10;49.80
11894;DHT22;6006;49.696;8.662;2022-08-01T10:42:00;28.80;50.30
11894;DHT22;6006;49.696;8.662;2022-08-01T10:44:28;29.90;51.30
11894;DHT22;6006;49.696;8.662;2022-08-01T10:46:59;30.40;45.60
11894;DHT22;6006;49.696;8.662;2022-08-01T10:49:30;30.60;44.10
11894;DHT22;6006;49.696;8.662;2022-08-01T10:51:58;30.70;43.90
11894;DHT22;6006;49.696;8.662;2022-08-01T10:54:26;30.30;42.30
11894;DHT22;6006;49.696;8.662;2022-08-01T10:56:53;30.00;43.80
11894;DHT22;6006;49.696;8.662;2022-08-01T10:59:24;29.00;50.60
11894;DHT22;6006;49.696;8.662;2022-08-01T11:01:59;30.00;45.60
11894;DHT22;6006;49.696;8.662;2022-08-01T11:04:40;30.80;42.20
11894;DHT22;6006;49.696;8.662;2022-08-01T11:07:13;30.20;46.60
11894;DHT22;6006;49.696;8.662;2022-08-01T11:09:42;29.00;45.00
11894;DHT22;6006;49.696;8.662;2022-08-01T11:12:11;28.20;46.90
11894;DHT22;6006;49.696;8.662;2022-08-01T11:17:53;27.30;51.50
11894;DHT22;6006;49.696;8.662;2022-08-01T11:20:21;27.30;53.50
11894;DHT22;6006;49.696;8.662;2022-08-01T11:26:14;27.40;51.10
11894;DHT22;6006;49.696;8.662;2022-08-01T11:28:43;27.90;50.60
11894;DHT22;6006;49.696;8.662;2022-08-01T11:31:28;27.90;50.90
11894;DHT22;6006;49.696;8.662;2022-08-01T11:33:57;27.50;54.30
11894;DHT22;6006;49.696;8.662;2022-08-01T11:36:24;28.00;50.70
11894;DHT22;6006;49.696;8.662;2022-08-01T11:39:24;29.60;50.80
11894;DHT22;6006;49.696;8.662;2022-08-01T11:41:51;29.10;49.10
11894;DHT22;6006;49.696;8.662;2022-08-01T11:44:22;28.40;47.50
11894;DHT22;6006;49.696;8.662;2022-08-01T11:46:53;29.40;49.70
11894;DHT22;6006;49.696;8.662;2022-08-01T11:49:34;29.70;45.20
11894;DHT22;6006;49.696;8.662;2022-08-01T11:52:12;30.90;40.90
11894;DHT22;6006;49.696;8.662;2022-08-01T11:54:40;32.30;38.90
11894;DHT22;6006;49.696;8.662;2022-08-01T11:57:08;32.10;36.30
11894;DHT22;6006;49.696;8.662;2022-08-01T11:59:37;32.00;34.00
11894;DHT22;6006;49.696;8.662;2022-08-01T12:02:15;31.10;38.10
11894;DHT22;6006;49.696;8.662;2022-08-01T12:04:48;30.50;36.40
11894;DHT22;6006;49.696;8.662;2022-08-01T12:07:16;30.00;39.70
11894;DHT22;6006;49.696;8.662;2022-08-01T12:09:43;29.80;40.30
11894;DHT22;6006;49.696;8.662;2022-08-01T12:12:15;30.40;37.80
11894;DHT22;6006;49.696;8.662;2022-08-01T12:14:43;30.70;35.20
11894;DHT22;6006;49.696;8.662;2022-08-01T12:17:10;30.30;39.50
11894;DHT22;6006;49.696;8.662;2022-08-01T12:19:37;30.00;39.80
11894;DHT22;6006;49.696;8.662;2022-08-01T12:22:09;29.20;37.80
11894;DHT22;6006;49.696;8.662;2022-08-01T12:24:37;28.80;38.60
11894;DHT22;6006;49.696;8.662;2022-08-01T12:27:07;28.90;42.70
11894;DHT22;6006;49.696;8.662;2022-08-01T12:29:35;28.80;42.60
11894;DHT22;6006;49.696;8.662;2022-08-01T12:32:02;29.40;39.20
11894;DHT22;6006;49.696;8.662;2022-08-01T12:34:30;29.60;37.00
11894;DHT22;6006;49.696;8.662;2022-08-01T12:37:01;30.00;39.70
11894;DHT22;6006;49.696;8.662;2022-08-01T12:39:34;29.50;39.20
11894;DHT22;6006;49.696;8.662;2022-08-01T12:42:01;29.00;41.30
11894;DHT22;6006;49.696;8.662;2022-08-01T12:44:31;28.80;42.80
11894;DHT22;6006;49.696;8.662;2022-08-01T12:47:00;28.40;44.00
11894;DHT22;6006;49.696;8.662;2022-08-01T12:49:27;29.00;40.80
11894;DHT22;6006;49.696;8.662;2022-08-01T12:51:55;29.60;35.60
11894;DHT22;6006;49.696;8.662;2022-08-01T12:54:22;30.50;35.10
11894;DHT22;6006;49.696;8.662;2022-08-01T12:56:52;31.00;34.20
11894;DHT22;6006;49.696;8.662;2022-08-01T12:59:20;30.80;29.90
11894;DHT22;6006;49.696;8.662;2022-08-01T13:01:48;30.50;32.20
11894;DHT22;6006;49.696;8.662;2022-08-01T13:04:15;30.10;33.90
11894;DHT22;6006;49.696;8.662;2022-08-01T13:06:42;30.20;34.30
11894;DHT22;6006;49.696;8.662;2022-08-01T13:09:09;30.80;33.50
11894;DHT22;6006;49.696;8.662;2022-08-01T13:11:37;31.30;31.30
11894;DHT22;6006;49.696;8.662;2022-08-01T13:14:06;31.60;28.30
11894;DHT22;6006;49.696;8.662;2022-08-01T13:16:45;31.00;28.00
11894;DHT22;6006;49.696;8.662;2022-08-01T13:19:12;31.40;28.60
11894;DHT22;6006;49.696;8.662;2022-08-01T13:21:39;30.70;29.10
11894;DHT22;6006;49.696;8.662;2022-08-01T13:24:24;29.80;31.50
11894;DHT22;6006;49.696;8.662;2022-08-01T13:26:53;30.30;30.20
11894;DHT22;6006;49.696;8.662;2022-08-01T13:29:30;30.60;29.80
11894;DHT22;6006;49.696;8.662;2022-08-01T13:31:58;30.50;29.10
11894;DHT22;6006;49.696;8.662;2022-08-01T13:34:31;30.70;30.00
11894;DHT22;6006;49.696;8.662;2022-08-01T13:36:59;30.50;29.70
11894;DHT22;6006;49.696;8.662;2022-08-01T13:39:27;30.20;32.20
11894;DHT22;6006;49.696;8.662;2022-08-01T13:42:07;29.50;33.90
11894;DHT22;6006;49.696;8.662;2022-08-01T13:44:35;29.00;34.50
11894;DHT22;6006;49.696;8.662;2022-08-01T13:47:03;28.60;33.70
11894;DHT22;6006;49.696;8.662;2022-08-01T13:49:31;28.30;34.20
11894;DHT22;6006;49.696;8.662;2022-08-01T13:51:58;28.50;35.10
11894;DHT22;6006;49.696;8.662;2022-08-01T13:54:25;28.60;39.70
11894;DHT22;6006;49.696;8.662;2022-08-01T13:56:53;28.60;35.20
11894;DHT22;6006;49.696;8.662;2022-08-01T13:59:20;28.80;35.20
11894;DHT22;6006;49.696;8.662;2022-08-01T14:01:49;28.90;35.70
11894;DHT22;6006;49.696;8.662;2022-08-01T14:04:16;29.00;34.90
11894;DHT22;6006;49.696;8.662;2022-08-01T14:06:42;28.90;35.40
11894;DHT22;6006;49.696;8.662;2022-08-01T14:09:09;29.40;37.20
11894;DHT22;6006;49.696;8.662;2022-08-01T14:11:36;29.40;35.50
11894;DHT22;6006;49.696;8.662;2022-08-01T14:14:03;29.10;34.10
11894;DHT22;6006;49.696;8.662;2022-08-01T14:16:30;29.10;36.50
11894;DHT22;6006;49.696;8.662;2022-08-01T14:18:58;29.10;31.60
11894;DHT22;6006;49.696;8.662;2022-08-01T14:21:25;29.40;33.40
11894;DHT22;6006;49.696;8.662;2022-08-01T14:23:52;30.30;29.60
11894;DHT22;6006;49.696;8.662;2022-08-01T14:26:19;30.70;32.40
11894;DHT22;6006;49.696;8.662;2022-08-01T14:28:46;30.10;33.40
11894;DHT22;6006;49.696;8.662;2022-08-01T14:31:13;29.80;30.30
11894;DHT22;6006;49.696;8.662;2022-08-01T14:33:40;29.30;31.60
11894;DHT22;6006;49.696;8.662;2022-08-01T14:36:08;28.90;33.20
11894;DHT22;6006;49.696;8.662;2022-08-01T14:38:35;28.90;36.30
11894;DHT22;6006;49.696;8.662;2022-08-01T14:41:02;28.80;32.90
11894;DHT22;6006;49.696;8.662;2022-08-01T14:43:29;29.10;34.40
11894;DHT22;6006;49.696;8.662;2022-08-01T14:45:57;29.30;34.10
11894;DHT22;6006;49.696;8.662;2022-08-01T14:48:24;28.90;31.90
11894;DHT22;6006;49.696;8.662;2022-08-01T14:50:50;28.80;32.70
11894;DHT22;6006;49.696;8.662;2022-08-01T14:53:19;28.90;32.70
11894;DHT22;6006;49.696;8.662;2022-08-01T14:55:46;28.60;33.90
11894;DHT22;6006;49.696;8.662;2022-08-01T14:58:13;28.40;31.30
11894;DHT22;6006;49.696;8.662;2022-08-01T15:00:40;28.40;34.30
11894;DHT22;6006;49.696;8.662;2022-08-01T15:03:06;28.40;34.90
11894;DHT22;6006;49.696;8.662;2022-08-01T15:05:33;28.50;33.10
11894;DHT22;6006;49.696;8.662;2022-08-01T15:08:01;28.50;36.10
11894;DHT22;6006;49.696;8.662;2022-08-01T15:10:35;28.50;32.90
11894;DHT22;6006;49.696;8.662;2022-08-01T15:13:05;28.50;36.00
11894;DHT22;6006;49.696;8.662;2022-08-01T15:15:33;28.80;32.60
11894;DHT22;6006;49.696;8.662;2022-08-01T15:18:00;28.80;32.20
11894;DHT22;6006;49.696;8.662;2022-08-01T15:20:27;28.80;35.70
11894;DHT22;6006;49.696;8.662;2022-08-01T15:22:54;28.80;35.20
11894;DHT22;6006;49.696;8.662;2022-08-01T15:25:22;28.70;37.40
11894;DHT22;6006;49.696;8.662;2022-08-01T15:27:50;28.80;34.70
11894;DHT22;6006;49.696;8.662;2022-08-01T15:30:17;28.50;34.20
11894;DHT22;6006;49.696;8.662;2022-08-01T15:32:44;28.90;33.90
11894;DHT22;6006;49.696;8.662;2022-08-01T15:35:11;29.60;32.00
11894;DHT22;6006;49.696;8.662;2022-08-01T15:37:38;29.70;33.60
11894;DHT22;6006;49.696;8.662;2022-08-01T15:40:05;29.10;32.70
11894;DHT22;6006;49.696;8.662;2022-08-01T15:42:32;28.90;35.20
11894;DHT22;6006;49.696;8.662;2022-08-01T15:45:01;28.70;34.00
11894;DHT22;6006;49.696;8.662;2022-08-01T15:47:29;28.70;34.30
11894;DHT22;6006;49.696;8.662;2022-08-01T15:49:56;28.80;33.70
11894;DHT22;6006;49.696;8.662;2022-08-01T15:52:27;29.00;33.30
11894;DHT22;6006;49.696;8.662;2022-08-01T15:54:54;29.30;32.00
11894;DHT22;6006;49.696;8.662;2022-08-01T15:57:21;29.30;32.20
11894;DHT22;6006;49.696;8.662;2022-08-01T15:59:48;28.90;36.20
11894;DHT22;6006;49.696;8.662;2022-08-01T16:02:16;28.70;35.90